Wallace, Indiana
Current Conditions -  °F | °C
As of 12:55 PM on Monday 22 Dec 2014 (Local Time) from KDNV Reporting Station
Drizzle Drizzle  
Wind Chill: 31°   Ceiling: 800
Heat Index: 37°   Visibility: 4mi
Dew Point: 36°   Wind: 8mph
Humidity: 96%   Direction: 120°ESE
Pressure: 29.76"   Gusts: NA
Location:  39.99°N, 87.15°W
Report Text: KDNV 221755Z AUTO 12007KT 4SM -DZ OVC008 03/02 A2976 RMK AO2 60001 T00260020 10026 20000
Loading
Personal Weather Stations






























Interactive Weather Map New forecast layout! Learn more

10-Day Weather Forecast

Advertisements
Track Severe Weather on mobile